createdAt,value
2017-06-28T00:02:22.429Z,14.90
2017-06-28T00:04:50.630Z,14.90
2017-06-28T00:07:18.840Z,14.90
2017-06-28T00:09:47.370Z,14.90
2017-06-28T00:12:15.584Z,14.80
2017-06-28T00:14:43.781Z,14.80
2017-06-28T00:17:12.375Z,14.70
2017-06-28T00:19:40.573Z,14.70
2017-06-28T00:22:08.782Z,14.60
2017-06-28T00:24:37.451Z,14.60
2017-06-28T00:27:06.409Z,14.70
2017-06-28T00:29:34.606Z,14.70
2017-06-28T00:32:03.169Z,14.70
2017-06-28T00:34:31.407Z,14.70
2017-06-28T00:36:59.605Z,14.80
2017-06-28T00:39:28.218Z,14.80
2017-06-28T00:41:56.758Z,14.80
2017-06-28T00:44:24.955Z,14.90
2017-06-28T00:46:53.652Z,14.90
2017-06-28T00:49:21.835Z,14.90
2017-06-28T00:51:50.026Z,14.90
2017-06-28T00:54:19.492Z,15.00
2017-06-28T00:56:47.820Z,15.00
2017-06-28T00:59:16.021Z,14.90
2017-06-28T01:01:44.608Z,14.90
2017-06-28T01:04:12.799Z,14.90
2017-06-28T01:06:40.972Z,14.90
2017-06-28T01:09:09.523Z,15.00
2017-06-28T01:11:37.767Z,15.00
2017-06-28T01:14:06.806Z,15.10
2017-06-28T01:16:35.394Z,15.10
2017-06-28T01:19:03.652Z,15.00
2017-06-28T01:21:31.854Z,15.10
2017-06-28T01:24:00.428Z,15.10
2017-06-28T01:26:28.609Z,15.20
2017-06-28T01:28:56.796Z,15.20
2017-06-28T01:31:25.453Z,15.20
2017-06-28T01:33:53.748Z,15.20
2017-06-28T01:36:21.944Z,15.10
2017-06-28T01:38:50.583Z,15.10
2017-06-28T01:41:18.764Z,15.10
2017-06-28T01:43:46.975Z,15.10
2017-06-28T01:46:16.462Z,15.00
2017-06-28T01:48:44.659Z,15.00
2017-06-28T01:51:13.609Z,15.00
2017-06-28T01:53:42.169Z,15.00
2017-06-28T01:56:10.332Z,15.10
2017-06-28T01:58:38.551Z,15.10
2017-06-28T02:01:07.109Z,15.10
2017-06-28T02:03:35.473Z,15.10
2017-06-28T02:06:03.662Z,15.10
2017-06-28T02:08:32.185Z,15.20
2017-06-28T02:11:01.161Z,15.20
2017-06-28T02:13:29.343Z,15.20
2017-06-28T02:15:57.931Z,15.30
2017-06-28T02:18:26.905Z,15.20
2017-06-28T02:20:55.108Z,15.20
2017-06-28T02:23:24.454Z,15.20
2017-06-28T02:25:52.659Z,15.20
2017-06-28T02:28:20.886Z,15.20
2017-06-28T02:30:49.496Z,15.30
2017-06-28T02:33:17.745Z,15.30
2017-06-28T02:35:45.963Z,15.30
2017-06-28T02:38:14.534Z,15.30
2017-06-28T02:40:42.762Z,15.30
2017-06-28T02:43:11.043Z,15.30
2017-06-28T02:45:39.663Z,15.30
2017-06-28T02:48:07.916Z,15.30
2017-06-28T02:50:36.116Z,15.30
2017-06-28T02:53:04.670Z,15.30
2017-06-28T02:55:32.848Z,15.30
2017-06-28T02:58:01.043Z,15.40
2017-06-28T03:00:29.622Z,15.40
2017-06-28T03:02:57.830Z,15.40
2017-06-28T03:05:26.869Z,15.40
2017-06-28T03:07:55.458Z,15.30
2017-06-28T03:10:23.660Z,15.40
2017-06-28T03:12:51.851Z,15.50
2017-06-28T03:15:21.222Z,15.50
2017-06-28T03:17:49.429Z,15.40
2017-06-28T03:20:18.435Z,15.40
2017-06-28T03:22:46.986Z,15.40
2017-06-28T03:25:15.189Z,15.40
2017-06-28T03:27:43.385Z,15.50
2017-06-28T03:30:11.981Z,15.50
2017-06-28T03:32:40.305Z,15.50
2017-06-28T03:35:09.261Z,15.50
2017-06-28T03:37:37.828Z,15.50
2017-06-28T03:40:06.069Z,15.50
2017-06-28T03:42:34.296Z,15.50
2017-06-28T03:45:02.863Z,15.50
2017-06-28T03:47:31.168Z,15.50
2017-06-28T03:49:59.342Z,15.50
2017-06-28T03:52:27.900Z,15.60
2017-06-28T03:54:56.081Z,15.60
2017-06-28T03:57:24.289Z,15.60
2017-06-28T03:59:53.641Z,15.60
2017-06-28T04:02:22.169Z,15.60
2017-06-28T04:04:50.394Z,15.60
2017-06-28T04:07:20.333Z,15.70
2017-06-28T04:09:49.362Z,15.80
2017-06-28T04:12:17.617Z,15.80
2017-06-28T04:14:46.294Z,15.80
2017-06-28T04:17:14.517Z,15.90
2017-06-28T04:19:42.734Z,15.90
2017-06-28T04:22:11.306Z,15.90
2017-06-28T04:24:39.522Z,15.90
2017-06-28T04:27:08.459Z,16.00
2017-06-28T04:29:37.019Z,16.00
2017-06-28T04:32:05.222Z,16.10
2017-06-28T04:34:33.463Z,16.30
2017-06-28T04:37:02.041Z,16.40
2017-06-28T04:39:30.233Z,16.50
2017-06-28T04:41:58.496Z,16.60
2017-06-28T04:44:27.099Z,16.60
2017-06-28T04:46:55.310Z,16.60
2017-06-28T04:49:23.527Z,16.70
2017-06-28T04:51:52.120Z,16.60
2017-06-28T04:54:20.387Z,16.60
2017-06-28T04:56:48.626Z,16.60
2017-06-28T04:59:17.287Z,16.60
2017-06-28T05:01:45.478Z,16.60
2017-06-28T05:04:14.476Z,16.70
2017-06-28T05:06:43.811Z,16.70
2017-06-28T05:09:12.003Z,16.70
2017-06-28T05:11:40.223Z,16.70
2017-06-28T05:14:09.742Z,16.60
2017-06-28T05:16:37.937Z,16.60
2017-06-28T05:19:06.164Z,16.60
2017-06-28T05:21:34.806Z,16.70
2017-06-28T05:24:02.980Z,16.70
2017-06-28T05:26:31.188Z,16.70
2017-06-28T05:28:59.757Z,16.70
2017-06-28T05:31:27.961Z,16.80
2017-06-28T05:33:56.257Z,16.80
2017-06-28T05:36:25.038Z,16.80
2017-06-28T05:38:53.546Z,17.00
2017-06-28T05:41:22.090Z,17.20
2017-06-28T05:43:51.439Z,17.80
2017-06-28T05:46:19.710Z,17.80
2017-06-28T05:48:48.985Z,18.20
2017-06-28T05:51:17.803Z,18.60
2017-06-28T05:53:46.157Z,18.80
2017-06-28T05:56:14.373Z,18.90
2017-06-28T05:58:42.992Z,19.20
2017-06-28T06:01:11.971Z,19.20
2017-06-28T06:03:40.973Z,19.00
2017-06-28T06:06:10.298Z,18.90
2017-06-28T06:08:38.504Z,18.90
2017-06-28T06:11:06.722Z,18.80
2017-06-28T06:13:36.070Z,18.70
2017-06-28T06:16:04.262Z,18.70
2017-06-28T06:18:32.465Z,18.70
2017-06-28T06:21:01.921Z,19.00
2017-06-28T06:23:30.109Z,19.00
2017-06-28T06:25:58.320Z,19.10
2017-06-28T06:28:27.643Z,18.90
2017-06-28T06:30:55.852Z,18.90
2017-06-28T06:33:24.051Z,19.00
2017-06-28T06:35:52.704Z,19.20
2017-06-28T06:38:21.161Z,19.50
2017-06-28T06:40:49.352Z,19.80
2017-06-28T06:43:17.959Z,19.70
2017-06-28T06:45:46.189Z,19.90
2017-06-28T06:48:14.405Z,19.70
2017-06-28T06:50:42.970Z,19.60
2017-06-28T06:53:11.187Z,19.50
2017-06-28T06:55:40.186Z,19.60
2017-06-28T06:58:08.725Z,19.50
2017-06-28T07:00:37.824Z,19.50
2017-06-28T07:03:06.001Z,19.50
2017-06-28T07:05:34.560Z,19.40
2017-06-28T07:08:02.894Z,19.50
2017-06-28T07:10:31.883Z,19.70
2017-06-28T07:13:01.388Z,19.80
2017-06-28T07:15:30.340Z,19.80
2017-06-28T07:17:58.569Z,19.80
2017-06-28T07:20:27.313Z,19.90
2017-06-28T07:22:55.573Z,19.80
2017-06-28T07:25:23.762Z,19.90
2017-06-28T07:27:52.323Z,20.00
2017-06-28T07:30:20.550Z,20.10
2017-06-28T07:32:48.848Z,20.10
2017-06-28T07:35:17.391Z,20.20
2017-06-28T07:37:46.367Z,20.20
2017-06-28T07:40:14.555Z,20.20
2017-06-28T07:42:43.999Z,20.40
2017-06-28T07:45:12.190Z,20.40
2017-06-28T07:47:40.489Z,20.50
2017-06-28T07:50:09.063Z,20.50
2017-06-28T07:52:37.262Z,20.50
2017-06-28T07:55:06.258Z,20.50
2017-06-28T07:57:34.901Z,20.40
2017-06-28T08:00:03.360Z,20.50
2017-06-28T08:02:31.586Z,20.50
2017-06-28T08:05:00.181Z,20.40
2017-06-28T08:07:30.597Z,20.40
2017-06-28T08:09:59.927Z,20.40
2017-06-28T08:12:28.144Z,20.40
2017-06-28T08:14:56.371Z,20.50
2017-06-28T08:17:24.907Z,20.60
2017-06-28T08:19:53.148Z,20.60
2017-06-28T08:22:21.341Z,20.50
2017-06-28T08:24:49.946Z,20.60
2017-06-28T08:27:18.165Z,20.70
2017-06-28T08:29:46.367Z,20.80
2017-06-28T08:32:14.967Z,20.80
2017-06-28T08:34:43.220Z,21.00
2017-06-28T08:37:11.419Z,21.20
2017-06-28T08:39:40.103Z,21.10
2017-06-28T08:42:08.307Z,21.20
2017-06-28T08:44:36.497Z,21.40
2017-06-28T08:47:05.112Z,21.40
2017-06-28T08:49:33.367Z,21.60
2017-06-28T08:52:01.567Z,21.60
2017-06-28T08:54:30.080Z,21.80
2017-06-28T08:56:58.371Z,21.80
2017-06-28T08:59:27.320Z,22.00
2017-06-28T09:01:55.903Z,22.00
2017-06-28T09:04:24.178Z,22.00
2017-06-28T09:06:52.466Z,22.10
2017-06-28T09:09:21.128Z,22.10
2017-06-28T09:11:51.769Z,22.20
2017-06-28T09:14:19.967Z,22.30
2017-06-28T09:16:50.275Z,22.50
2017-06-28T09:19:18.461Z,22.60
2017-06-28T09:21:46.665Z,22.60
2017-06-28T09:24:16.913Z,22.50
2017-06-28T09:26:45.152Z,22.40
2017-06-28T09:29:13.365Z,22.40
2017-06-28T09:31:41.955Z,22.50
2017-06-28T09:34:10.157Z,22.60
2017-06-28T09:36:38.333Z,22.70
2017-06-28T09:39:07.095Z,22.60
2017-06-28T09:41:35.298Z,22.50
2017-06-28T09:44:04.264Z,22.60
2017-06-28T09:46:32.843Z,22.60
2017-06-28T09:49:01.566Z,22.80
2017-06-28T09:51:30.671Z,22.70
2017-06-28T09:53:59.303Z,22.70
2017-06-28T09:56:27.578Z,22.80
2017-06-28T09:58:55.777Z,22.80
2017-06-28T10:01:24.322Z,22.90
2017-06-28T10:03:52.584Z,22.90
2017-06-28T10:06:20.809Z,22.90
2017-06-28T10:08:49.581Z,22.90
2017-06-28T10:11:17.789Z,22.90
2017-06-28T10:13:46.739Z,23.10
2017-06-28T10:16:16.261Z,23.10
2017-06-28T10:18:44.461Z,23.00
2017-06-28T10:21:12.676Z,23.10
2017-06-28T10:23:41.249Z,23.20
2017-06-28T10:26:09.441Z,23.30
2017-06-28T10:28:37.620Z,23.40
2017-06-28T10:31:06.203Z,23.30
2017-06-28T10:33:34.409Z,23.40
2017-06-28T10:36:03.381Z,23.50
2017-06-28T10:38:31.956Z,23.40
2017-06-28T10:41:00.155Z,23.60
2017-06-28T10:43:28.405Z,23.50
2017-06-28T10:45:56.981Z,23.50
2017-06-28T10:48:25.316Z,23.60
2017-06-28T10:50:53.539Z,23.60
2017-06-28T10:53:22.923Z,23.90
2017-06-28T10:55:51.137Z,23.90
2017-06-28T10:58:20.146Z,23.90
2017-06-28T11:00:48.767Z,23.90
2017-06-28T11:03:16.966Z,23.90
2017-06-28T11:05:45.209Z,24.00
2017-06-28T11:08:14.128Z,24.10
2017-06-28T11:10:42.905Z,24.20
2017-06-28T11:13:11.088Z,24.30
2017-06-28T11:15:39.882Z,24.50
2017-06-28T11:18:08.227Z,24.50
2017-06-28T11:20:36.449Z,24.60
2017-06-28T11:23:05.841Z,24.30
2017-06-28T11:25:34.083Z,24.30
2017-06-28T11:28:02.285Z,24.20
2017-06-28T11:30:30.923Z,24.10
2017-06-28T11:32:59.120Z,24.20
2017-06-28T11:35:27.326Z,24.20
2017-06-28T11:37:56.708Z,24.30
2017-06-28T11:40:24.895Z,24.20
2017-06-28T11:42:53.090Z,24.20
2017-06-28T11:45:21.813Z,24.10
2017-06-28T11:47:50.069Z,24.00
2017-06-28T11:50:18.315Z,23.90
2017-06-28T11:52:47.761Z,23.80
2017-06-28T11:55:16.002Z,23.80
2017-06-28T11:57:44.974Z,24.00
2017-06-28T12:00:14.352Z,24.10
2017-06-28T12:02:42.659Z,24.10
2017-06-28T12:05:11.619Z,24.40
2017-06-28T12:07:40.229Z,24.40
2017-06-28T12:10:09.235Z,24.60
2017-06-28T12:12:38.251Z,24.70
2017-06-28T12:15:06.870Z,24.60
2017-06-28T12:17:35.087Z,24.70
2017-06-28T12:20:04.070Z,24.70
2017-06-28T12:22:32.728Z,24.70
2017-06-28T12:25:00.953Z,24.80
2017-06-28T12:27:29.201Z,25.00
2017-06-28T12:29:58.525Z,25.10
2017-06-28T12:32:26.922Z,25.10
2017-06-28T12:34:55.272Z,25.10
2017-06-28T12:37:23.894Z,25.30
2017-06-28T12:39:52.109Z,25.30
2017-06-28T12:42:21.092Z,25.50
2017-06-28T12:44:49.750Z,25.50
